createdAt,value
2019-05-02T05:57:21.183Z,97624.81
2019-05-02T06:02:22.381Z,97630.01
2019-05-02T06:07:23.351Z,97628.59
2019-05-02T06:12:26.056Z,97622.98
2019-05-02T06:17:28.650Z,97621.22
2019-05-02T06:22:29.772Z,97617.05
2019-05-02T06:27:30.638Z,97617.95
2019-05-02T06:32:31.635Z,97617.73
2019-05-02T06:37:32.524Z,97620.03
2019-05-02T06:42:34.629Z,97621.70
2019-05-02T06:47:41.693Z,97620.33
2019-05-02T06:52:39.057Z,97616.09
2019-05-02T06:57:39.927Z,97616.08
2019-05-02T07:02:40.942Z,97615.53
2019-05-02T07:07:41.916Z,97616.27
2019-05-02T07:12:46.127Z,97609.91
2019-05-02T07:17:47.464Z,97604.29
2019-05-02T07:22:48.823Z,97600.00
2019-05-02T07:27:49.701Z,97593.11
2019-05-02T07:32:51.024Z,97594.72
2019-05-02T07:37:51.936Z,97582.14
2019-05-02T07:42:52.814Z,97583.23
2019-05-02T07:47:53.684Z,97586.08
2019-05-02T07:52:54.567Z,97579.33
2019-05-02T07:57:55.449Z,97582.84
2019-05-02T08:02:57.994Z,97577.52
2019-05-02T08:07:59.111Z,97580.73
2019-05-02T08:12:59.989Z,97579.39
2019-05-02T08:18:00.968Z,97583.48
2019-05-02T08:23:01.943Z,97584.46
2019-05-02T08:28:17.912Z,97586.09
2019-05-02T08:33:19.742Z,97583.64
2019-05-02T08:38:20.731Z,97580.97
2019-05-02T08:43:22.044Z,97575.65
2019-05-02T08:48:22.915Z,97574.45
2019-05-02T08:53:23.779Z,97567.68
2019-05-02T08:58:24.659Z,97569.59
2019-05-02T09:03:25.557Z,97565.89
2019-05-02T09:08:26.430Z,97562.00
2019-05-02T09:13:29.450Z,97559.94
2019-05-02T09:18:37.876Z,97551.91
2019-05-02T09:23:36.858Z,97545.09
2019-05-02T09:28:35.644Z,97547.03
2019-05-02T09:33:36.987Z,97545.57
2019-05-02T09:38:39.436Z,97541.11
2019-05-02T09:43:40.310Z,97537.23
2019-05-02T09:48:42.746Z,97536.25
2019-05-02T09:53:44.731Z,97529.78
2019-05-02T09:58:45.707Z,97519.47
2019-05-02T10:03:46.805Z,97513.20
2019-05-02T10:08:47.752Z,97509.53
2019-05-02T10:13:48.658Z,97501.45
2019-05-02T10:18:49.623Z,97492.42
2019-05-02T10:23:51.821Z,97482.70
2019-05-02T10:28:53.575Z,97472.46
2019-05-02T10:33:54.535Z,97464.19
2019-05-02T10:38:59.263Z,97451.41
2019-05-02T10:43:59.605Z,97440.47
2019-05-02T10:49:02.470Z,97435.66
2019-05-02T10:54:05.151Z,97424.47
2019-05-02T10:59:06.043Z,97416.42
2019-05-02T11:04:08.808Z,97418.92
2019-05-02T11:09:11.888Z,97403.79
2019-05-02T11:14:14.763Z,97393.08
2019-05-02T11:19:17.598Z,97389.00
2019-05-02T11:24:18.523Z,97381.52
2019-05-02T11:29:19.380Z,97379.17
2019-05-02T11:34:22.078Z,97367.31
2019-05-02T11:39:30.969Z,97352.76
2019-05-02T11:44:25.956Z,97352.03
2019-05-02T11:49:26.836Z,97347.17
2019-05-02T11:54:27.932Z,97335.98
2019-05-02T11:59:29.294Z,97325.05
2019-05-02T12:04:32.444Z,97321.70
2019-05-02T12:09:33.269Z,97322.52
2019-05-02T12:14:36.388Z,97320.41
2019-05-02T12:19:36.937Z,97316.30
2019-05-02T12:24:40.794Z,97299.80
2019-05-02T12:29:42.376Z,97299.83
2019-05-02T12:34:43.481Z,97296.40
2019-05-02T12:39:44.367Z,97294.84
2019-05-02T12:44:45.240Z,97284.83
2019-05-02T12:49:46.117Z,97273.49
2019-05-02T12:54:46.987Z,97273.51
2019-05-02T12:59:47.880Z,97264.20
2019-05-02T13:04:48.960Z,97259.00
2019-05-02T13:09:49.861Z,97257.08
2019-05-02T13:14:52.862Z,97244.30
2019-05-02T13:19:57.134Z,97250.40
2019-05-02T13:24:58.791Z,97244.46
2019-05-02T13:29:59.773Z,97231.42
2019-05-02T13:35:02.761Z,97227.05
2019-05-02T13:40:06.463Z,97214.30
2019-05-02T13:45:12.854Z,97207.77
2019-05-02T13:50:14.797Z,97198.36
2019-05-02T13:55:17.875Z,97194.80
2019-05-02T14:00:31.905Z,97189.91
2019-05-02T14:05:33.031Z,97183.88
2019-05-02T14:10:39.236Z,97173.67
2019-05-02T14:15:39.635Z,97168.34
2019-05-02T14:20:42.629Z,97156.41
2019-05-02T14:25:45.388Z,97155.97
2019-05-02T14:30:46.562Z,97144.31
2019-05-02T14:35:47.431Z,97144.95
2019-05-02T14:41:03.078Z,97137.80
2019-05-02T14:46:04.462Z,97129.63
2019-05-02T14:51:05.331Z,97127.27
2019-05-02T14:56:12.499Z,97124.45
2019-05-02T15:01:17.169Z,97119.47
2019-05-02T15:06:16.581Z,97112.05
2019-05-02T15:11:17.555Z,97107.34
2019-05-02T15:16:20.063Z,97105.44
2019-05-02T15:21:22.921Z,97099.33
2019-05-02T15:26:26.214Z,97097.58
2019-05-02T15:31:31.586Z,97097.66
2019-05-02T15:36:32.398Z,97098.57
2019-05-02T15:41:33.307Z,97086.62
2019-05-02T15:46:34.353Z,97078.05
2019-05-02T15:51:38.008Z,97075.72
2019-05-02T15:56:54.014Z,97072.31
2019-05-02T16:01:55.767Z,97071.11
2019-05-02T16:07:00.501Z,97076.52
2019-05-02T16:12:03.384Z,97073.70
2019-05-02T16:17:04.604Z,97065.80
2019-05-02T16:22:11.532Z,97070.34
2019-05-02T16:27:16.433Z,97057.99
2019-05-02T16:32:23.193Z,97053.55
2019-05-02T16:37:24.323Z,97042.48
2019-05-02T16:42:25.376Z,97042.55
2019-05-02T16:47:26.253Z,97042.33
2019-05-02T16:52:27.133Z,97035.48
2019-05-02T16:57:28.008Z,97027.66
2019-05-02T17:02:28.867Z,97023.50
2019-05-02T17:07:48.416Z,97018.80
2019-05-02T17:12:52.978Z,97019.14
2019-05-02T17:17:54.217Z,97011.30
2019-05-02T17:23:01.824Z,97016.97
2019-05-02T17:28:02.444Z,97007.88
2019-05-02T17:33:01.895Z,97005.29
2019-05-02T17:38:03.316Z,97010.80
2019-05-02T17:43:06.858Z,97013.20
2019-05-02T17:48:15.275Z,97017.36
2019-05-02T17:53:11.679Z,97008.66
2019-05-02T17:58:16.053Z,97017.03
2019-05-02T18:03:15.708Z,97022.87
2019-05-02T18:08:16.740Z,97021.14
2019-05-02T18:13:17.611Z,97014.50
2019-05-02T18:18:18.487Z,97021.97
2019-05-02T18:23:24.111Z,97025.00
2019-05-02T18:28:26.127Z,97026.38
2019-05-02T18:33:24.940Z,97026.27
2019-05-02T18:38:25.826Z,97040.88
2019-05-02T18:43:26.708Z,97048.84
2019-05-02T18:48:27.581Z,97046.74
2019-05-02T18:53:28.457Z,97051.02
2019-05-02T18:58:29.437Z,97056.28
2019-05-02T19:03:30.431Z,97059.47
2019-05-02T19:08:45.191Z,97060.63
2019-05-02T19:13:37.544Z,97068.06
2019-05-02T19:18:39.988Z,97063.92
2019-05-02T19:23:42.465Z,97066.63
2019-05-02T19:28:57.527Z,97067.69
2019-05-02T19:33:58.387Z,97073.58
2019-05-02T19:39:07.821Z,97072.75
2019-05-02T19:44:02.390Z,97068.81
2019-05-02T19:49:06.842Z,97061.33
2019-05-02T19:54:07.142Z,97050.86
2019-05-02T19:59:08.139Z,97053.09
2019-05-02T20:04:09.576Z,97051.41
2019-05-02T20:09:12.034Z,97059.13
2019-05-02T20:14:13.546Z,97053.75
